Time;durP1;ratioP1;P1;durP2;ratioP2;P2;SDS_P1;SDS_P2;PMS_P1;PMS_P2;Temp;Humidity;BMP_temperature;BMP_pressure;BME280_temperature;BME280_humidity;BME280_pressure;Samples;Min_cycle;Max_cycle;Signal;HPM_P1;HPM_P2
2024/03/22 00:00:54;;;;;;;25.90;14.02;;;11.20;99.90;;;;;;8380767;28;20306;-74
2024/03/22 00:05:48;;;;;;;26.30;14.25;;;11.20;99.90;;;;;;8379202;28;20419;-75
2024/03/22 00:09:49;;;;;;;26.38;14.55;;;11.30;99.90;;;;;;8392015;28;20506;-74
2024/03/22 00:13:50;;;;;;;25.67;14.38;;;11.30;99.90;;;;;;8375033;28;20436;-74
2024/03/22 00:17:51;;;;;;;26.92;15.38;;;11.30;99.90;;;;;;8390709;28;20093;-74
2024/03/22 00:21:52;;;;;;;26.98;14.52;;;11.30;99.90;;;;;;8383066;28;20063;-74
2024/03/22 00:25:53;;;;;;;23.90;12.68;;;11.30;99.90;;;;;;8377746;28;20048;-74
2024/03/22 00:29:54;;;;;;;23.17;13.10;;;11.30;99.90;;;;;;8391849;28;20044;-74
2024/03/22 00:33:55;;;;;;;23.92;13.60;;;11.30;99.90;;;;;;8380146;28;20040;-75
2024/03/22 00:37:56;;;;;;;24.95;14.32;;;11.30;99.90;;;;;;8383938;28;20056;-75
2024/03/22 00:41:57;;;;;;;28.65;16.10;;;11.20;99.90;;;;;;8372297;28;20109;-74
2024/03/22 00:45:58;;;;;;;27.38;15.18;;;11.20;99.90;;;;;;8379512;28;20052;-74
2024/03/22 00:50:01;;;;;;;28.42;16.58;;;11.20;99.90;;;;;;8414195;28;20060;-75
2024/03/22 00:54:02;;;;;;;31.13;15.38;;;11.20;99.90;;;;;;8388627;28;20067;-74
2024/03/22 00:58:03;;;;;;;28.15;15.00;;;11.20;99.90;;;;;;8374535;28;20433;-74
2024/03/22 01:02:04;;;;;;;28.15;15.13;;;11.20;99.90;;;;;;8382992;28;20056;-74
2024/03/22 01:06:05;;;;;;;27.60;16.25;;;11.10;99.90;;;;;;8361060;28;20109;-74
2024/03/22 01:10:06;;;;;;;31.58;16.27;;;11.20;99.90;;;;;;8383432;28;20051;-74
2024/03/22 01:14:07;;;;;;;33.83;16.42;;;11.20;99.90;;;;;;8365083;28;20427;-74
2024/03/22 01:18:08;;;;;;;31.63;15.80;;;11.20;99.90;;;;;;8366854;28;20071;-74
2024/03/22 01:22:09;;;;;;;29.52;16.48;;;11.20;99.90;;;;;;8378492;28;20074;-74
2024/03/22 01:26:10;;;;;;;28.63;15.85;;;11.20;99.90;;;;;;8381994;28;20135;-74
2024/03/22 01:30:11;;;;;;;28.70;16.23;;;11.20;99.90;;;;;;8378191;28;20050;-75
2024/03/22 01:34:13;;;;;;;28.27;15.85;;;11.30;99.90;;;;;;8371966;28;20054;-74
2024/03/22 01:38:14;;;;;;;27.27;14.70;;;11.30;99.90;;;;;;8364341;28;20511;-74
2024/03/22 01:42:14;;;;;;;29.92;16.63;;;11.30;99.90;;;;;;8387482;28;20409;-74
2024/03/22 01:46:15;;;;;;;28.23;16.48;;;11.30;99.90;;;;;;8373050;28;20040;-74
2024/03/22 01:50:17;;;;;;;30.25;17.17;;;11.30;99.90;;;;;;8387483;28;20672;-74
2024/03/22 01:54:20;;;;;;;28.65;16.30;;;11.30;99.90;;;;;;8374994;28;20055;-74
2024/03/22 01:58:21;;;;;;;25.17;14.55;;;11.30;99.90;;;;;;8368955;28;20060;-75
2024/03/22 02:02:22;;;;;;;26.90;16.35;;;11.30;99.90;;;;;;8378849;28;20062;-74
2024/03/22 02:06:24;;;;;;;24.85;15.15;;;11.30;99.90;;;;;;8371211;28;20052;-74
2024/03/22 02:10:24;;;;;;;28.15;16.45;;;11.30;99.90;;;;;;8376784;28;20052;-74
2024/03/22 02:14:25;;;;;;;31.55;17.83;;;11.30;99.90;;;;;;8374838;28;20485;-74
2024/03/22 02:18:26;;;;;;;24.23;14.15;;;11.30;99.90;;;;;;8387704;28;20507;-75
2024/03/22 02:22:28;;;;;;;30.05;16.42;;;11.30;99.90;;;;;;8388815;28;20060;-75
2024/03/22 02:26:28;;;;;;;30.17;17.30;;;11.30;99.90;;;;;;8377479;28;20051;-74
2024/03/22 02:30:30;;;;;;;28.30;14.80;;;11.30;99.90;;;;;;8372341;28;20117;-74
2024/03/22 02:34:30;;;;;;;31.85;16.98;;;11.30;99.90;;;;;;8360396;28;20052;-74
2024/03/22 02:38:31;;;;;;;28.95;16.15;;;11.30;99.90;;;;;;8372834;28;20112;-74
2024/03/22 02:42:32;;;;;;;30.83;16.33;;;11.20;99.90;;;;;;8376588;28;20500;-74
2024/03/22 02:46:34;;;;;;;28.17;15.90;;;11.10;99.90;;;;;;8375582;28;20051;-74
2024/03/22 02:50:37;;;;;;;30.02;16.05;;;11.10;99.90;;;;;;8373029;28;20049;-74
2024/03/22 02:54:38;;;;;;;30.92;14.50;;;11.00;99.90;;;;;;8386580;28;20052;-74
2024/03/22 02:58:38;;;;;;;31.25;16.40;;;10.90;99.90;;;;;;8379641;28;20178;-74
2024/03/22 03:02:39;;;;;;;30.17;16.02;;;10.90;99.90;;;;;;8376971;28;20522;-74
2024/03/22 03:06:41;;;;;;;31.85;17.08;;;10.90;99.90;;;;;;8376373;28;20051;-75
2024/03/22 03:10:41;;;;;;;32.33;16.45;;;10.90;99.90;;;;;;8373852;28;20113;-74
2024/03/22 03:14:42;;;;;;;28.20;15.77;;;10.90;99.90;;;;;;8372716;28;20284;-74
2024/03/22 03:18:43;;;;;;;31.40;16.48;;;10.80;99.90;;;;;;8376701;28;20074;-74
2024/03/22 03:22:44;;;;;;;31.88;15.60;;;10.80;99.90;;;;;;8375203;28;20048;-74
2024/03/22 03:26:45;;;;;;;36.15;19.45;;;10.80;99.90;;;;;;8386138;28;20042;-74
2024/03/22 03:30:46;;;;;;;35.42;18.23;;;10.70;99.90;;;;;;8366648;28;20468;-74
2024/03/22 03:34:56;;;;;;;37.15;17.95;;;10.70;99.90;;;;;;8381701;28;20072;-74
2024/03/22 03:38:57;;;;;;;35.70;18.70;;;10.60;99.90;;;;;;8393949;28;20059;-74
2024/03/22 03:42:58;;;;;;;36.10;17.90;;;10.60;99.90;;;;;;8379505;28;20056;-73
2024/03/22 03:47:03;;;;;;;36.88;17.55;;;10.50;99.90;;;;;;8380870;28;20488;-74
2024/03/22 03:51:05;;;;;;;35.30;18.30;;;10.50;99.90;;;;;;8370985;28;20576;-74
2024/03/22 03:55:06;;;;;;;38.47;18.35;;;10.50;99.90;;;;;;8396004;28;20052;-74
2024/03/22 03:59:07;;;;;;;37.78;19.55;;;10.50;99.90;;;;;;8365943;28;20048;-74
2024/03/22 04:03:08;;;;;;;37.80;19.02;;;10.40;99.90;;;;;;8376735;28;20069;-74
2024/03/22 04:07:09;;;;;;;38.65;19.63;;;10.40;99.90;;;;;;8377039;28;20135;-74
2024/03/22 04:11:11;;;;;;;38.20;19.02;;;10.40;99.90;;;;;;8376192;28;20042;-74
2024/03/22 04:15:12;;;;;;;42.95;21.50;;;10.40;99.90;;;;;;8369327;28;20483;-74
2024/03/22 04:19:13;;;;;;;43.42;21.88;;;10.30;99.90;;;;;;8377478;28;20561;-74
2024/03/22 04:23:14;;;;;;;39.22;19.55;;;10.40;99.90;;;;;;8373967;28;20381;-74
2024/03/22 04:27:14;;;;;;;42.45;20.83;;;10.40;99.90;;;;;;8370954;28;20052;-75
2024/03/22 04:31:15;;;;;;;35.58;19.63;;;10.40;99.90;;;;;;8390045;28;20175;-74
2024/03/22 04:35:16;;;;;;;36.22;18.77;;;10.40;99.90;;;;;;8412175;28;20058;-74
2024/03/22 04:39:20;;;;;;;34.63;17.15;;;10.30;99.90;;;;;;8380816;28;20131;-74
2024/03/22 04:43:23;;;;;;;31.90;16.17;;;10.30;99.90;;;;;;8370470;28;20051;-74
2024/03/22 04:47:25;;;;;;;33.35;17.35;;;10.30;99.90;;;;;;8390996;28;20052;-74
2024/03/22 04:51:25;;;;;;;35.92;18.42;;;10.30;99.90;;;;;;8377968;28;20072;-74
2024/03/22 04:55:26;;;;;;;40.63;21.00;;;10.30;99.90;;;;;;8388297;28;20049;-74
2024/03/22 04:59:28;;;;;;;41.35;20.85;;;10.30;99.90;;;;;;8377771;28;20742;-75
2024/03/22 05:03:28;;;;;;;38.72;19.88;;;10.30;99.90;;;;;;8403539;28;20056;-74
2024/03/22 05:07:31;;;;;;;36.20;18.02;;;10.30;99.90;;;;;;8407364;28;20051;-74
2024/03/22 05:11:31;;;;;;;34.33;18.67;;;10.30;99.90;;;;;;8404017;28;20141;-74
2024/03/22 05:15:32;;;;;;;32.15;18.00;;;10.30;99.90;;;;;;8404177;28;20132;-74
2024/03/22 05:19:33;;;;;;;39.55;20.08;;;10.30;99.90;;;;;;8411614;28;20040;-75
2024/03/22 05:23:34;;;;;;;38.22;19.70;;;10.30;99.90;;;;;;8407408;28;20444;-74
2024/03/22 05:27:36;;;;;;;33.03;17.02;;;10.30;99.90;;;;;;8404843;28;20131;-74
2024/03/22 05:31:51;;;;;;;32.63;17.58;;;10.30;99.90;;;;;;8383394;28;20048;-74
2024/03/22 05:35:51;;;;;;;37.65;18.90;;;10.30;99.90;;;;;;8389282;28;20055;-74
2024/03/22 05:39:52;;;;;;;35.20;16.13;;;10.30;99.90;;;;;;8405721;28;20067;-74
2024/03/22 05:43:53;;;;;;;34.10;16.38;;;10.30;99.90;;;;;;8372532;28;20063;-74
2024/03/22 05:47:54;;;;;;;34.00;17.23;;;10.30;99.90;;;;;;8397716;28;20052;-74
2024/03/22 05:51:55;;;;;;;33.15;16.88;;;10.30;99.90;;;;;;8390727;28;20044;-74
2024/03/22 05:55:56;;;;;;;31.08;16.40;;;10.30;99.90;;;;;;8390744;28;20418;-74
2024/03/22 05:59:57;;;;;;;30.83;15.80;;;10.20;99.90;;;;;;8386320;28;20135;-74
2024/03/22 06:03:58;;;;;;;34.35;17.13;;;10.20;99.90;;;;;;8389475;28;20064;-74
2024/03/22 06:07:59;;;;;;;33.75;16.08;;;10.20;99.90;;;;;;8405182;28;20052;-74
2024/03/22 06:12:02;;;;;;;31.48;16.95;;;10.20;99.90;;;;;;8408507;28;20130;-74
2024/03/22 06:16:03;;;;;;;27.55;14.88;;;10.20;99.90;;;;;;8389686;28;20119;-74
2024/03/22 06:20:05;;;;;;;26.15;14.40;;;10.20;99.90;;;;;;8390753;28;20122;-74
2024/03/22 06:24:06;;;;;;;26.48;13.25;;;10.20;99.90;;;;;;8407778;28;20130;-74
2024/03/22 06:28:07;;;;;;;24.67;14.23;;;10.20;99.90;;;;;;8389799;28;20045;-74
2024/03/22 06:32:08;;;;;;;25.52;13.35;;;10.20;99.90;;;;;;8408346;28;20048;-74
2024/03/22 06:36:09;;;;;;;25.17;14.10;;;10.20;99.90;;;;;;8407619;28;20072;-74
2024/03/22 06:40:10;;;;;;;26.10;12.00;;;10.20;99.90;;;;;;8406744;28;20462;-74
2024/03/22 06:44:13;;;;;;;23.80;11.75;;;10.30;99.90;;;;;;8402251;28;20139;-74
2024/03/22 06:48:17;;;;;;;26.92;13.60;;;10.30;99.90;;;;;;8382592;28;20054;-74
2024/03/22 06:52:19;;;;;;;23.92;12.50;;;10.30;99.90;;;;;;8394449;28;20150;-74
2024/03/22 06:56:20;;;;;;;26.73;13.82;;;10.30;99.90;;;;;;8402522;28;20138;-74
2024/03/22 07:00:21;;;;;;;24.40;13.07;;;10.40;99.90;;;;;;8397662;28;20139;-75
2024/03/22 07:04:21;;;;;;;24.65;13.07;;;10.50;99.90;;;;;;8416635;28;20055;-74
2024/03/22 07:08:23;;;;;;;29.90;15.00;;;10.50;99.90;;;;;;8404377;28;20048;-74
2024/03/22 07:12:24;;;;;;;;;;;10.60;99.90;;;;;;8395613;28;19923;-75
2024/03/22 07:16:25;;;;;;;;;;;10.70;99.90;;;;;;8402775;28;20438;-74
2024/03/22 07:20:26;;;;;;;;;;;10.70;99.90;;;;;;8398794;28;20326;-74
2024/03/22 07:24:27;;;;;;;;;;;10.70;99.90;;;;;;8395899;28;19926;-74
2024/03/22 07:28:27;;;;;;;;;;;10.70;99.90;;;;;;8384893;28;19924;-74
2024/03/22 07:32:29;;;;;;;;;;;10.70;99.90;;;;;;8388370;28;19927;-75
2024/03/22 07:36:30;;;;;;;;;;;10.70;99.90;;;;;;8391342;28;20065;-74
2024/03/22 07:40:31;;;;;;;;;;;10.70;99.90;;;;;;8406806;28;19920;-75
2024/03/22 07:44:32;;;;;;;;;;;10.70;99.90;;;;;;8395460;28;20364;-74
2024/03/22 07:48:32;;;;;;;;;;;10.70;99.90;;;;;;8402080;28;19927;-74
2024/03/22 07:52:33;;;;;;;;;;;10.70;99.90;;;;;;8403634;28;20389;-74
2024/03/22 07:56:34;;;;;;;;;;;10.70;99.90;;;;;;8404256;28;19963;-74
2024/03/22 08:00:35;;;;;;;;;;;10.70;99.90;;;;;;8398144;28;20105;-73
2024/03/22 08:04:36;;;;;;;;;;;10.70;99.90;;;;;;8399009;28;20003;-74
2024/03/22 08:08:37;;;;;;;;;;;10.70;99.90;;;;;;8404854;28;19935;-74
2024/03/22 08:12:38;;;;;;;;;;;10.70;99.90;;;;;;8405127;28;20283;-75
2024/03/22 08:16:38;;;;;;;;;;;10.70;99.90;;;;;;8392687;28;19970;-74
2024/03/22 08:20:39;;;;;;;;;;;10.70;99.90;;;;;;8395551;28;19924;-75
2024/03/22 08:24:40;;;;;;;;;;;10.70;99.90;;;;;;8414787;28;19927;-74
2024/03/22 08:28:41;;;;;;;;;;;10.70;99.90;;;;;;8411142;28;20010;-75
2024/03/22 08:32:42;;;;;;;;;;;10.60;99.90;;;;;;8392972;28;19934;-74
2024/03/22 08:36:42;;;;;;;;;;;10.60;99.90;;;;;;8404464;28;19938;-74
2024/03/22 08:40:44;;;;;;;;;;;10.60;99.90;;;;;;8406571;28;19966;-74
2024/03/22 08:44:44;;;;;;;;;;;10.60;99.90;;;;;;8397078;28;20636;-74
2024/03/22 08:48:45;;;;;;;;;;;10.60;99.90;;;;;;8392036;28;19924;-75
2024/03/22 08:52:46;;;;;;;;;;;10.60;99.90;;;;;;8413726;28;20341;-74
2024/03/22 08:56:47;;;;;;;;;;;10.50;99.90;;;;;;8377780;28;19930;-74
2024/03/22 09:00:48;;;;;;;;;;;10.50;99.90;;;;;;8393026;28;19928;-74
2024/03/22 09:04:49;;;;;;;;;;;10.40;99.90;;;;;;8380343;28;19946;-75
2024/03/22 09:08:50;;;;;;;;;;;10.40;99.90;;;;;;8389035;28;19965;-74
2024/03/22 09:12:51;;;;;;;;;;;10.40;99.90;;;;;;8391994;28;20055;-74
2024/03/22 09:16:52;;;;;;;;;;;10.30;99.90;;;;;;8386657;28;19932;-75
2024/03/22 09:20:53;;;;;;;;;;;10.40;99.90;;;;;;8378421;28;20411;-74
2024/03/22 09:24:54;;;;;;;;;;;10.40;99.90;;;;;;8392137;28;20458;-74
2024/03/22 09:28:55;;;;;;;;;;;10.40;99.90;;;;;;8377689;28;20005;-75
2024/03/22 09:32:56;;;;;;;;;;;10.50;99.90;;;;;;8386328;28;19932;-75
2024/03/22 09:36:57;;;;;;;;;;;10.40;99.90;;;;;;8389896;28;19959;-75
2024/03/22 09:40:58;;;;;;;;;;;10.40;99.90;;;;;;8387292;28;20000;-74
2024/03/22 09:45:00;;;;;;;;;;;10.40;99.90;;;;;;8365007;28;19927;-75
2024/03/22 09:49:01;;;;;;;;;;;10.40;99.90;;;;;;8401838;28;20018;-75
2024/03/22 09:53:03;;;;;;;;;;;10.40;99.90;;;;;;8396015;28;19920;-75
2024/03/22 09:57:03;;;;;;;;;;;10.40;99.90;;;;;;8370976;28;19999;-75
2024/03/22 10:01:04;;;;;;;;;;;10.40;99.90;;;;;;8379500;28;20014;-75
2024/03/22 10:05:06;;;;;;;;;;;10.40;99.90;;;;;;8376005;28;19924;-74
2024/03/22 10:09:08;;;;;;;;;;;10.40;99.90;;;;;;8383596;28;20011;-74
2024/03/22 10:13:09;;;;;;;;;;;10.30;99.90;;;;;;8396055;28;20011;-75
2024/03/22 10:17:10;;;;;;;;;;;10.30;99.90;;;;;;8395699;28;19968;-75
2024/03/22 10:21:11;;;;;;;;;;;10.30;99.90;;;;;;8393090;28;19920;-75
2024/03/22 10:25:11;;;;;;;;;;;10.30;99.90;;;;;;8378110;28;20368;-76
2024/03/22 10:29:12;;;;;;;;;;;10.40;99.90;;;;;;8392341;28;19920;-75
2024/03/22 10:33:14;;;;;;;;;;;10.40;99.90;;;;;;8391970;28;19927;-74
2024/03/22 10:37:16;;;;;;;;;;;10.40;99.90;;;;;;8394968;28;20018;-75
2024/03/22 10:41:17;;;;;;;;;;;10.40;99.90;;;;;;8369606;28;20027;-74
2024/03/22 10:45:17;;;;;;;;;;;10.40;99.90;;;;;;8374601;28;19927;-75
2024/03/22 10:49:19;;;;;;;;;;;10.50;99.90;;;;;;8388142;28;20406;-75
2024/03/22 10:53:24;;;;;;;;;;;10.40;99.90;;;;;;8373777;28;20332;-75
2024/03/22 10:57:26;;;;;;;;;;;10.40;99.90;;;;;;8398393;28;20050;-74
2024/03/22 11:01:33;;;;;;;;;;;10.40;99.90;;;;;;8382457;28;19935;-75
2024/03/22 11:05:34;;;;;;;;;;;10.40;99.90;;;;;;8393769;28;20011;-75
2024/03/22 11:09:35;;;;;;;;;;;10.50;99.90;;;;;;8391877;28;19924;-75
2024/03/22 11:13:36;;;;;;;;;;;10.50;99.90;;;;;;8375070;28;20333;-75
2024/03/22 11:17:37;;;;;;;;;;;10.50;99.90;;;;;;8383157;28;20016;-75
2024/03/22 11:21:38;;;;;;;;;;;10.60;99.90;;;;;;8394586;28;20058;-75
2024/03/22 11:25:39;;;;;;;;;;;10.60;99.90;;;;;;8388238;28;20000;-75
2024/03/22 11:29:41;;;;;;;;;;;10.70;99.90;;;;;;8377265;28;20061;-75
2024/03/22 11:33:43;;;;;;;;;;;10.70;99.90;;;;;;8374044;28;20015;-75
2024/03/22 11:37:44;;;;;;;;;;;10.70;99.90;;;;;;8393178;28;20007;-74
2024/03/22 11:41:48;;;;;;;;;;;10.70;99.90;;;;;;8356422;28;20435;-74
2024/03/22 11:45:48;;;;;;;;;;;10.70;99.90;;;;;;8367310;28;20008;-74
2024/03/22 11:49:50;;;;;;;;;;;10.70;99.90;;;;;;8388950;28;19926;-74
2024/03/22 11:53:55;;;;;;;;;;;10.80;99.90;;;;;;8398972;28;20015;-74
2024/03/22 11:57:57;;;;;;;;;;;10.80;99.90;;;;;;8397143;28;20045;-74
2024/03/22 12:01:58;;;;;;;;;;;10.90;99.90;;;;;;8399491;28;20007;-74
2024/03/22 12:05:59;;;;;;;;;;;10.90;99.90;;;;;;8392558;28;19920;-74
2024/03/22 12:10:00;;;;;;;;;;;10.80;99.90;;;;;;8400020;28;20316;-75
2024/03/22 12:14:00;;;;;;;;;;;10.80;99.90;;;;;;8397660;28;19963;-74
2024/03/22 12:18:02;;;;;;;;;;;10.80;99.90;;;;;;8401855;28;19920;-74
2024/03/22 12:22:03;;;;;;;;;;;10.70;99.90;;;;;;8395409;28;20015;-74
2024/03/22 12:26:04;;;;;;;;;;;10.70;99.90;;;;;;8394421;28;19928;-75
2024/03/22 12:30:06;;;;;;;;;;;10.70;99.90;;;;;;8395501;28;19999;-74
2024/03/22 12:34:07;;;;;;;;;;;10.70;99.90;;;;;;8388437;28;19927;-75
2024/03/22 12:38:13;;;;;;;;;;;10.70;99.90;;;;;;8376381;28;19963;-74
2024/03/22 12:42:14;;;;;;;;;;;10.70;99.90;;;;;;8386310;28;19934;-74
2024/03/22 12:46:15;;;;;;;;;;;10.70;99.90;;;;;;8371098;28;19946;-74
2024/03/22 12:50:16;;;;;;;;;;;10.60;99.90;;;;;;8390990;28;20470;-74
2024/03/22 12:54:18;;;;;;;;;;;10.70;99.90;;;;;;8397571;28;20275;-74
2024/03/22 12:58:19;;;;;;;;;;;10.80;99.90;;;;;;8393085;28;20007;-74
2024/03/22 13:02:20;;;;;;;;;;;10.90;99.90;;;;;;8421280;28;20351;-75
2024/03/22 13:06:20;;;;;;;;;;;10.90;99.90;;;;;;8410981;28;19920;-74
2024/03/22 13:10:21;;;;;;;;;;;10.90;99.90;;;;;;8392033;28;20297;-74
2024/03/22 13:14:22;;;;;;;;;;;10.90;99.90;;;;;;8413097;28;19920;-75
2024/03/22 13:18:23;;;;;;;;;;;10.80;99.90;;;;;;8396763;28;20462;-74
2024/03/22 13:22:23;;;;;;;;;;;10.70;99.90;;;;;;8412559;28;19920;-75
2024/03/22 13:26:25;;;;;;;;;;;10.60;99.90;;;;;;8397305;28;19972;-74
2024/03/22 13:30:27;;;;;;;;;;;10.60;99.90;;;;;;8413489;28;20010;-74
2024/03/22 13:34:28;;;;;;;;;;;10.70;99.90;;;;;;8399956;28;20061;-74
2024/03/22 13:38:29;;;;;;;;;;;10.70;99.90;;;;;;8399192;28;20007;-74
2024/03/22 13:42:29;;;;;;;;;;;10.70;99.90;;;;;;8398326;28;19924;-74
2024/03/22 13:46:30;;;;;;;;;;;10.70;99.90;;;;;;8403673;28;19934;-75
2024/03/22 13:50:31;;;;;;;;;;;10.70;99.90;;;;;;8394463;28;20022;-75
2024/03/22 13:54:32;;;;;;;;;;;10.70;99.90;;;;;;8395364;28;19920;-74
2024/03/22 13:58:33;;;;;;;;;;;10.80;99.90;;;;;;8399678;28;19927;-74
2024/03/22 14:02:34;;;;;;;;;;;10.80;99.90;;;;;;8404367;28;20369;-75
2024/03/22 14:06:35;;;;;;;;;;;10.90;99.90;;;;;;8388487;28;19924;-74
2024/03/22 14:10:36;;;;;;;;;;;10.90;99.90;;;;;;8382656;28;19943;-74
2024/03/22 14:14:37;;;;;;;;;;;10.80;99.90;;;;;;8383585;28;19924;-75
2024/03/22 14:18:38;;;;;;;;;;;10.80;99.90;;;;;;8387167;28;20010;-74
2024/03/22 14:22:40;;;;;;;;;;;10.70;99.90;;;;;;8430709;28;20441;-74
2024/03/22 14:26:43;;;;;;;;;;;10.70;99.90;;;;;;8384522;28;19930;-75
2024/03/22 14:30:44;;;;;;;;;;;10.70;99.90;;;;;;8396381;28;19938;-75
2024/03/22 14:34:45;;;;;;;;;;;10.70;99.90;;;;;;8394803;28;19929;-74
2024/03/22 14:38:47;;;;;;;;;;;10.80;99.90;;;;;;8406587;28;20323;-75
2024/03/22 14:42:48;;;;;;;;;;;10.90;99.90;;;;;;8370995;28;19920;-74
2024/03/22 14:46:48;;;;;;;;;;;10.90;99.90;;;;;;8408440;28;19927;-74
2024/03/22 14:50:50;;;;;;;;;;;10.90;99.90;;;;;;8380564;28;19970;-74
2024/03/22 14:54:52;;;;;;;;;;;11.00;99.90;;;;;;8409291;28;20003;-74
2024/03/22 14:58:53;;;;;;;;;;;11.00;99.90;;;;;;8410625;28;20026;-74
2024/03/22 15:02:54;;;;;;;;;;;11.00;99.90;;;;;;8405551;28;19935;-75
2024/03/22 15:06:54;;;;;;;;;;;11.00;99.90;;;;;;8394411;28;19924;-74
2024/03/22 15:10:55;;;;;;;;;;;11.00;99.90;;;;;;8408194;28;19951;-74
2024/03/22 15:14:56;;;;;;;;;;;11.00;99.90;;;;;;8435581;28;20014;-74
2024/03/22 15:18:57;;;;;;;;;;;11.00;99.90;;;;;;8409901;28;19920;-74
2024/03/22 15:22:58;;;;;;;;;;;10.90;99.90;;;;;;8389879;28;19924;-75
2024/03/22 15:26:58;;;;;;;;;;;10.90;99.90;;;;;;8375431;28;19998;-74
2024/03/22 15:30:59;;;;;;;;;;;10.90;99.90;;;;;;8406970;28;20407;-74
2024/03/22 15:35:00;;;;;;;;;;;10.90;99.90;;;;;;8404426;28;20011;-74
2024/03/22 15:39:04;;;;;;;;;;;10.80;99.90;;;;;;8384938;28;19955;-74
2024/03/22 15:43:08;;;;;;;;;;;10.70;99.90;;;;;;8405323;28;20079;-74
2024/03/22 15:47:08;;;;;;;;;;;10.70;99.90;;;;;;8406470;28;19920;-74
2024/03/22 15:51:09;;;;;;;;;;;10.60;99.90;;;;;;8408268;28;19927;-74
2024/03/22 15:55:10;;;;;;;;;;;10.50;99.90;;;;;;8410390;28;19920;-74
2024/03/22 15:59:11;;;;;;;;;;;10.50;99.90;;;;;;8413001;28;19938;-73
2024/03/22 16:03:13;;;;;;;;;;;10.50;99.90;;;;;;8392033;28;19920;-74
2024/03/22 16:07:14;;;;;;;;;;;10.50;99.90;;;;;;8404987;28;20002;-74
2024/03/22 16:11:15;;;;;;;;;;;10.40;99.90;;;;;;8393707;28;19920;-74
2024/03/22 16:15:16;;;;;;;;;;;10.40;99.90;;;;;;8401638;28;20414;-74
2024/03/22 16:19:17;;;;;;;;;;;10.30;99.90;;;;;;8397714;28;20339;-74
2024/03/22 16:23:17;;;;;;;;;;;10.20;99.90;;;;;;8397737;28;20400;-74
2024/03/22 16:27:20;;;;;;;;;;;10.20;99.90;;;;;;8410629;28;19964;-74
2024/03/22 16:31:20;;;;;;;;;;;10.10;99.90;;;;;;8404275;28;20010;-74
2024/03/22 16:35:21;;;;;;;;;;;10.10;99.90;;;;;;8399415;28;19924;-74
2024/03/22 16:39:23;;;;;;;;;;;10.10;99.90;;;;;;8402003;28;20010;-74
2024/03/22 16:43:24;;;;;;;;;;;10.10;99.90;;;;;;8379412;28;19928;-74
2024/03/22 16:47:25;;;;;;;;;;;10.10;99.90;;;;;;8389923;28;19939;-73
2024/03/22 16:51:25;;;;;;;;;;;10.10;99.90;;;;;;8367555;28;19951;-74
2024/03/22 16:55:26;;;;;;;;;;;10.10;99.90;;;;;;8382504;28;20015;-74
2024/03/22 16:59:28;;;;;;;;;;;10.10;99.90;;;;;;8379718;28;19927;-74
2024/03/22 17:03:29;;;;;;;;;;;10.20;99.90;;;;;;8396132;28;19920;-73
2024/03/22 17:07:30;;;;;;;;;;;10.20;99.90;;;;;;8410175;28;20405;-74
2024/03/22 17:11:32;;;;;;;;;;;10.30;99.90;;;;;;8374552;28;20485;-74
2024/03/22 17:15:34;;;;;;;;;;;10.20;99.90;;;;;;8389787;28;19925;-74
2024/03/22 17:19:34;;;;;;;;;;;10.20;99.90;;;;;;8391768;28;19969;-74
2024/03/22 17:23:35;;;;;;;;;;;10.10;99.90;;;;;;8375336;28;19935;-74
2024/03/22 17:27:36;;;;;;;;;;;10.10;99.90;;;;;;8411433;28;19929;-74
2024/03/22 17:31:37;;;;;;;;;;;10.10;99.90;;;;;;8380198;28;20307;-74
2024/03/22 17:35:38;;;;;;;;;;;10.10;99.90;;;;;;8381010;28;19977;-74
2024/03/22 17:39:39;;;;;;;;;;;10.10;99.90;;;;;;8376334;28;20471;-74
2024/03/22 17:43:41;;;;;;;;;;;10.10;99.90;;;;;;8407307;28;19971;-74
2024/03/22 17:47:42;;;;;;;;;;;10.00;99.90;;;;;;8393401;28;19930;-74
2024/03/22 17:51:43;;;;;;;;;;;10.00;99.90;;;;;;8376274;28;19955;-74
2024/03/22 17:55:43;;;;;;;;;;;10.00;99.90;;;;;;8396118;28;19920;-74
2024/03/22 17:59:45;;;;;;;;;;;10.00;99.90;;;;;;8379201;28;19926;-74
2024/03/22 18:03:45;;;;;;;;;;;9.90;99.90;;;;;;8371948;28;20648;-75
2024/03/22 18:07:46;;;;;;;;;;;9.90;99.90;;;;;;8380285;28;19929;-74
2024/03/22 18:11:47;;;;;;;;;;;9.90;99.90;;;;;;8395643;28;20018;-74
2024/03/22 18:15:48;;;;;;;;;;;9.90;99.90;;;;;;8363678;28;20031;-74
2024/03/22 18:19:50;;;;;;;;;;;9.90;99.90;;;;;;8373360;28;20273;-74
2024/03/22 18:23:54;;;;;;;;;;;9.90;99.90;;;;;;8385813;28;19942;-73
2024/03/22 18:27:54;;;;;;;;;;;9.90;99.90;;;;;;8375072;28;19932;-74
2024/03/22 18:31:55;;;;;;;;;;;9.90;99.90;;;;;;8376620;28;20006;-74
2024/03/22 18:35:56;;;;;;;;;;;9.90;99.90;;;;;;8375308;28;19924;-74
2024/03/22 18:39:57;;;;;;;;;;;9.90;99.90;;;;;;8377385;28;19935;-74
2024/03/22 18:43:57;;;;;;;;;;;9.90;99.90;;;;;;8367845;28;19962;-73
2024/03/22 18:47:59;;;;;;;;;;;9.90;99.90;;;;;;8380158;28;19971;-74
2024/03/22 18:51:59;;;;;;;;;;;9.90;99.90;;;;;;8376129;28;19966;-74
2024/03/22 18:56:00;;;;;;;;;;;9.90;99.90;;;;;;8378909;28;20023;-74
2024/03/22 19:00:03;;;;;;;;;;;9.80;99.90;;;;;;8378597;28;20276;-74
2024/03/22 19:04:03;;;;;;;;;;;9.80;99.90;;;;;;8364019;28;19928;-74
2024/03/22 19:08:08;;;;;;;;;;;9.80;99.90;;;;;;8374521;28;19920;-74
2024/03/22 19:12:09;;;;;;;;;;;9.80;99.90;;;;;;8381613;28;20371;-74
2024/03/22 19:16:10;;;;;;;;;;;9.70;99.90;;;;;;8367253;28;20345;-74
2024/03/22 19:20:11;;;;;;;;;;;9.70;99.90;;;;;;8365457;28;19924;-74
2024/03/22 19:24:12;;;;;;;;;;;9.60;99.90;;;;;;8368011;28;19926;-74
2024/03/22 19:28:13;;;;;;;;;;;9.60;99.90;;;;;;8404419;28;20011;-74
2024/03/22 19:32:15;;;;;;;;;;;9.60;99.90;;;;;;8372892;28;20430;-74
2024/03/22 19:36:16;;;;;;;;;;;9.60;99.90;;;;;;8407477;28;19973;-74
2024/03/22 19:40:16;;;;;;;;;;;9.50;99.90;;;;;;8372577;28;19928;-74
2024/03/22 19:44:17;;;;;;;;;;;9.50;99.90;;;;;;8405905;28;19925;-73
2024/03/22 19:48:18;;;;;;;;;;;9.50;99.90;;;;;;8375031;28;19935;-74
2024/03/22 19:52:19;;;;;;;;;;;9.50;99.90;;;;;;8372843;28;19924;-74
2024/03/22 19:56:20;;;;;;;;;;;9.50;99.90;;;;;;8383772;28;19970;-74
2024/03/22 20:00:21;;;;;;;;;;;9.40;99.90;;;;;;8366179;28;19920;-74
2024/03/22 20:04:21;;;;;;;;;;;9.40;99.90;;;;;;8368901;28;19924;-74
2024/03/22 20:08:22;;;;;;;;;;;9.40;99.90;;;;;;8368371;28;20186;-74
2024/03/22 20:12:24;;;;;;;;;;;9.40;99.90;;;;;;8364154;28;20001;-73
2024/03/22 20:16:25;;;;;;;;;;;9.40;99.90;;;;;;8378995;28;19928;-74
2024/03/22 20:20:26;;;;;;;;;;;9.40;99.90;;;;;;8376109;28;19932;-74
2024/03/22 20:24:27;;;;;;;;;;;9.40;99.90;;;;;;8379711;28;20267;-74
2024/03/22 20:28:28;;;;;;;;;;;9.40;99.90;;;;;;8395029;28;19928;-74
2024/03/22 20:32:29;;;;;;;;;;;9.30;99.90;;;;;;8392271;28;19977;-74
2024/03/22 20:36:30;;;;;;;;;;;9.30;99.90;;;;;;8391317;28;19924;-74
2024/03/22 20:45:34;;;;;;;;;;;9.20;99.90;;;;;;8398835;28;20027;-74
2024/03/22 20:49:36;;;;;;;;;;;9.20;99.90;;;;;;8377534;28;20298;-74
2024/03/22 20:53:37;;;;;;;;;;;9.20;99.90;;;;;;8375441;28;20005;-73
2024/03/22 20:57:43;;;;;;;;;;;9.20;99.90;;;;;;8374630;28;20244;-74
2024/03/22 21:01:44;;;;;;;;;;;9.20;99.90;;;;;;8394162;28;19946;-74
2024/03/22 21:05:45;;;;;;;;;;;9.20;99.90;;;;;;8370568;28;19925;-74
2024/03/22 21:09:46;;;;;;;;;;;9.20;99.90;;;;;;8346646;28;19921;-74
2024/03/22 21:13:48;;;;;;;;;;;9.10;99.90;;;;;;8362716;28;20380;-74
2024/03/22 21:17:49;;;;;;;;;;;9.10;99.90;;;;;;8356145;28;19928;-73
2024/03/22 21:21:51;;;;;;;;;;;9.10;99.90;;;;;;8354877;28;20393;-74
2024/03/22 21:30:55;;;;;;;;;;;9.10;99.90;;;;;;8361971;28;19919;-74
2024/03/22 21:34:57;;;;;;;;;;;9.10;99.90;;;;;;8354837;28;19921;-74
2024/03/22 21:38:58;;;;;;;;;;;9.10;99.90;;;;;;8349944;28;20195;-74
2024/03/22 21:42:59;;;;;;;;;;;9.00;99.90;;;;;;8360572;28;19920;-74
2024/03/22 21:47:01;;;;;;;;;;;8.90;99.90;;;;;;8356746;28;19920;-74
2024/03/22 21:51:02;;;;;;;;;;;8.90;99.90;;;;;;8355162;28;19927;-74
2024/03/22 21:55:05;;;;;;;;;;;8.80;99.90;;;;;;8371176;28;19920;-74
2024/03/22 21:59:06;;;;;;;;;;;8.80;99.90;;;;;;8381406;28;19921;-74
2024/03/22 22:03:08;;;;;;;;;;;8.80;99.90;;;;;;8366544;28;20302;-74
2024/03/22 22:07:10;;;;;;;;;;;8.80;99.90;;;;;;8376886;28;19973;-74
2024/03/22 22:11:11;;;;;;;;;;;8.80;99.90;;;;;;8371247;28;19932;-74
2024/03/22 22:15:12;;;;;;;;;;;8.80;99.90;;;;;;8390414;28;19924;-74
2024/03/22 22:19:14;;;;;;;;;;;8.80;99.90;;;;;;8363120;28;19928;-73
2024/03/22 22:23:15;;;;;;;;;;;8.80;99.90;;;;;;8372660;28;19973;-74
2024/03/22 22:27:17;;;;;;;;;;;8.80;99.90;;;;;;8374575;28;19920;-74
2024/03/22 22:31:18;;;;;;;;;;;8.80;99.90;;;;;;8390171;28;19928;-74
2024/03/22 22:35:19;;;;;;;;;;;8.80;99.90;;;;;;8373255;28;19919;-74